ΕΜΥ, Εθνική Μετεωρολογική Υπηρεσία - Δελτία Καιρού, Προγνώσεις

ΑΕΡΟΝΑΥΤΙΛΙΑ

GREEK AIRPORTS CODES

LGPZ 011620Z 00000KT 9999 FEW030 SCT080 13/10 Q1012=

EUROPEAN AIRPORTS CODES

LFPO 011630Z 01010KT 9999 BKN016 06/03 Q1025 NOSIG=